메인 페이지
METAR-TAF:

METAR-TAF

공항 :

빙엄턴, 뉴욕, 미국

위도: 42-12-28N, 경도: 075-58-53W, 고도: 496m

현재 날씨관측

예보는 49분 전, 17:53시(UTC)에 발표되었습니다.
북서11kt, 순간 최대 풍속 22kt
온도 2°C
습도 69%
기압 1016 hPa
시정: 16.1km
고도 2500ft 상공 구름 조금
고도 3200ft 상공 흐림

METAR: KBGM 231753Z 32011G22KT 10SM FEW025 OVC032 02/M03 A3001 RMK AO2 SLP173 60000 T00221033 10022 20000 50001

시각: 13:42 (18:42 UTC)

예보

예보는 1 시간 1분 전, 17:41시(UTC)에 발표되었습니다.
예보 대상 시간: 23일 18시부터 24일 18시까지 (UTC)
북서14kt, 순간 최대 풍속 22kt
시정: 10km
고도 2600ft 상공 구름 많음
23일 2000시부터 (UTC)
북서13kt, 순간 최대 풍속 21kt
시정: 10km
고도 3000ft 상공 구름 조금
고도 5000ft 상공 구름 많음
24일 0200시부터 (UTC)
서북서9kt
시정: 10km
고도 1300ft 상공 구름 많음
고도 2200ft 상공 흐림
일시적
24일 09시부터 24일 13시까지 (UTC)
시정: 8.0km
약한소낙눈, 박무
24일 1500시부터 (UTC)
북북서9kt
시정: 10km
고도 2200ft 상공 구름 많음
24일 1700시부터 (UTC)
북서8kt
시정: 10km
고도 3000ft 상공 구름 보통
고도 6000ft 상공 구름 많음

TAF: KBGM 231741Z 2318/2418 31014G22KT P6SM BKN026 FM232000 31013G21KT P6SM FEW030 BKN050 FM240200 30009KT P6SM BKN013 OVC022 TEMPO 2409/2413 5SM -SHSN BR FM241500 33009KT P6SM BKN022 FM241700 32008KT P6SM SCT030 BKN060

4,000개 이상의 공항 관측 자료 및 예보 (METAR 및 TAF 보고).

지도상에서 검색 가능한 기상관측소가 노란 점과 빨간 점으로 표시되어 있습니다.

기상관측소 명을 보려면 표시 위로 마우스를 이동하세요.

날씨 관측과 예보를 보려면 클릭하세요.

지도 변경 : 확대하려면 엑스 표시가 있는 녹색 버튼, 축소하려면 빼기 표시가 있는 녹색 버튼, 다음 페이지의 지도를 보려면 녹색 화살표를 클릭하세요.


METAR-TAF: